Portada
METAR-TAF:

METAR-TAF

Aeropuertos :

Xi'an, China

Aeropuerto Internacional de Xi'an-Xianyang

latitud: 34-26N, longitud: 108-45E, altitud: 479 m

Observación

El informe se hizo hace 1 hora y 2 minutos, a las 12:00 UTC
Viento 2 kt del oeste
Temperatura 8°C
Humedad 49%
Presión 1022 hPa
Visibilidad 10 km o más
sin nubes por debajo de 1500 m y sin presencia de cumulonimbus.

METAR: ZLXY 261200Z 27001MPS CAVOK 08/M02 Q1022 NOSIG

Hora: 21:02 (13:02 UTC)

Pronóstico

El informe se hizo hace 3 horas y 56 minutos, a las 09:06 UTC
Pronóstico válido del 26 a las 12 UTC al 27 a las 12 UTC
Viento 6 kt del oeste-suroeste
Visibilidad: 4000 m
calima

TAF: ZLXY 260906Z 2612/2712 24003MPS 4000 HZ NSC TX19/2707Z TN04/2623Z

Observaciones y pronósticos meteorológicos de más de 4000 aeropuertos (mensajes METAR y TAF).

Los puntos amarillos y rojos representan las estaciones disponibles.

Ponga el ratón en el punto deseado para ver el nombre de la estación.

Haga clic para ver las observaciones y los pronósticos meteorológicos.

Para cambiar el mapa : haga clic en los botones verdes con una cruz de color negro para hacer un zoom, en el botón verde con un guión para alejar o en las flechas verdes para mapas adyacentes.


METAR-TAF: